sensor_id;sensor_type;location;lat;lon;timestamp;P1;durP1;ratioP1;P2;durP2;ratioP2
56517;SDS011;42419;48.760;2.322;2022-09-09T00:01:48;4.13;;;1.87;;
56517;SDS011;42419;48.760;2.322;2022-09-09T00:04:32;7.37;;;2.40;;
56517;SDS011;42419;48.760;2.322;2022-09-09T00:07:09;5.40;;;2.37;;
56517;SDS011;42419;48.760;2.322;2022-09-09T00:12:22;5.67;;;2.20;;
56517;SDS011;42419;48.760;2.322;2022-09-09T00:14:51;7.23;;;2.07;;
56517;SDS011;42419;48.760;2.322;2022-09-09T00:17:43;4.83;;;1.90;;
56517;SDS011;42419;48.760;2.322;2022-09-09T00:20:19;4.27;;;1.80;;
56517;SDS011;42419;48.760;2.322;2022-09-09T00:22:53;4.97;;;2.00;;
56517;SDS011;42419;48.760;2.322;2022-09-09T00:25:35;6.90;;;2.40;;
56517;SDS011;42419;48.760;2.322;2022-09-09T00:28:13;3.77;;;1.97;;
56517;SDS011;42419;48.760;2.322;2022-09-09T00:30:44;8.23;;;2.17;;
56517;SDS011;42419;48.760;2.322;2022-09-09T00:33:13;2.50;;;1.90;;
56517;SDS011;42419;48.760;2.322;2022-09-09T00:35:50;5.10;;;1.90;;
56517;SDS011;42419;48.760;2.322;2022-09-09T00:38:23;5.30;;;1.80;;
56517;SDS011;42419;48.760;2.322;2022-09-09T00:40:52;6.73;;;2.13;;
56517;SDS011;42419;48.760;2.322;2022-09-09T00:51:10;5.33;;;2.03;;
56517;SDS011;42419;48.760;2.322;2022-09-09T00:54:01;4.13;;;2.20;;
56517;SDS011;42419;48.760;2.322;2022-09-09T00:56:56;6.53;;;2.10;;
56517;SDS011;42419;48.760;2.322;2022-09-09T00:59:37;5.10;;;2.07;;
56517;SDS011;42419;48.760;2.322;2022-09-09T01:05:11;4.40;;;2.20;;
56517;SDS011;42419;48.760;2.322;2022-09-09T01:07:41;3.00;;;1.73;;
56517;SDS011;42419;48.760;2.322;2022-09-09T01:10:16;4.57;;;2.03;;
56517;SDS011;42419;48.760;2.322;2022-09-09T01:12:52;6.57;;;2.53;;
56517;SDS011;42419;48.760;2.322;2022-09-09T01:15:24;6.83;;;1.83;;
56517;SDS011;42419;48.760;2.322;2022-09-09T01:17:58;4.40;;;2.07;;
56517;SDS011;42419;48.760;2.322;2022-09-09T01:20:37;7.20;;;2.10;;
56517;SDS011;42419;48.760;2.322;2022-09-09T01:23:16;5.60;;;1.83;;
56517;SDS011;42419;48.760;2.322;2022-09-09T01:26:04;6.07;;;2.30;;
56517;SDS011;42419;48.760;2.322;2022-09-09T01:28:33;3.83;;;1.97;;
56517;SDS011;42419;48.760;2.322;2022-09-09T01:31:02;4.63;;;2.37;;
56517;SDS011;42419;48.760;2.322;2022-09-09T01:33:29;4.37;;;2.17;;
56517;SDS011;42419;48.760;2.322;2022-09-09T01:38:22;6.17;;;1.90;;
56517;SDS011;42419;48.760;2.322;2022-09-09T01:40:49;3.77;;;1.63;;
56517;SDS011;42419;48.760;2.322;2022-09-09T01:43:17;3.90;;;1.50;;
56517;SDS011;42419;48.760;2.322;2022-09-09T01:45:44;4.30;;;1.83;;
56517;SDS011;42419;48.760;2.322;2022-09-09T01:48:13;3.33;;;1.80;;
56517;SDS011;42419;48.760;2.322;2022-09-09T01:50:39;2.87;;;1.83;;
56517;SDS011;42419;48.760;2.322;2022-09-09T01:53:04;4.60;;;2.03;;
56517;SDS011;42419;48.760;2.322;2022-09-09T01:55:31;3.50;;;1.87;;
56517;SDS011;42419;48.760;2.322;2022-09-09T02:01:08;3.97;;;2.17;;
56517;SDS011;42419;48.760;2.322;2022-09-09T02:03:55;5.27;;;1.97;;
56517;SDS011;42419;48.760;2.322;2022-09-09T02:08:55;4.00;;;2.00;;
56517;SDS011;42419;48.760;2.322;2022-09-09T02:11:23;7.50;;;2.23;;
56517;SDS011;42419;48.760;2.322;2022-09-09T02:13:51;3.70;;;2.00;;
56517;SDS011;42419;48.760;2.322;2022-09-09T02:16:54;4.30;;;1.97;;
56517;SDS011;42419;48.760;2.322;2022-09-09T02:19:27;5.10;;;2.20;;
56517;SDS011;42419;48.760;2.322;2022-09-09T02:21:57;3.77;;;1.90;;
56517;SDS011;42419;48.760;2.322;2022-09-09T02:24:26;5.17;;;2.10;;
56517;SDS011;42419;48.760;2.322;2022-09-09T02:26:54;6.50;;;2.20;;
56517;SDS011;42419;48.760;2.322;2022-09-09T02:29:28;3.20;;;1.83;;
56517;SDS011;42419;48.760;2.322;2022-09-09T02:31:58;5.57;;;2.13;;
56517;SDS011;42419;48.760;2.322;2022-09-09T02:34:28;6.63;;;2.77;;
56517;SDS011;42419;48.760;2.322;2022-09-09T02:36:56;4.10;;;2.20;;
56517;SDS011;42419;48.760;2.322;2022-09-09T02:39:24;6.33;;;1.70;;
56517;SDS011;42419;48.760;2.322;2022-09-09T02:41:50;5.63;;;2.23;;
56517;SDS011;42419;48.760;2.322;2022-09-09T02:44:17;4.43;;;1.80;;
56517;SDS011;42419;48.760;2.322;2022-09-09T02:46:57;4.13;;;2.00;;
56517;SDS011;42419;48.760;2.322;2022-09-09T02:49:30;7.40;;;2.50;;
56517;SDS011;42419;48.760;2.322;2022-09-09T02:52:08;6.20;;;2.17;;
56517;SDS011;42419;48.760;2.322;2022-09-09T02:54:40;8.03;;;1.90;;
56517;SDS011;42419;48.760;2.322;2022-09-09T02:57:21;3.90;;;1.70;;
56517;SDS011;42419;48.760;2.322;2022-09-09T02:59:52;5.43;;;2.33;;
56517;SDS011;42419;48.760;2.322;2022-09-09T03:02:19;5.40;;;2.17;;
56517;SDS011;42419;48.760;2.322;2022-09-09T03:04:45;7.43;;;2.27;;
56517;SDS011;42419;48.760;2.322;2022-09-09T03:07:15;3.13;;;2.00;;
56517;SDS011;42419;48.760;2.322;2022-09-09T03:09:42;7.50;;;2.20;;
56517;SDS011;42419;48.760;2.322;2022-09-09T03:12:07;8.20;;;2.50;;
56517;SDS011;42419;48.760;2.322;2022-09-09T03:14:32;4.10;;;1.90;;
56517;SDS011;42419;48.760;2.322;2022-09-09T03:16:58;2.50;;;1.70;;
56517;SDS011;42419;48.760;2.322;2022-09-09T03:19:26;5.20;;;2.23;;
56517;SDS011;42419;48.760;2.322;2022-09-09T03:21:52;6.50;;;2.23;;
56517;SDS011;42419;48.760;2.322;2022-09-09T03:24:17;6.20;;;2.23;;
56517;SDS011;42419;48.760;2.322;2022-09-09T03:26:43;5.63;;;2.33;;
56517;SDS011;42419;48.760;2.322;2022-09-09T03:29:09;4.80;;;2.17;;
56517;SDS011;42419;48.760;2.322;2022-09-09T03:31:37;8.80;;;2.27;;
56517;SDS011;42419;48.760;2.322;2022-09-09T03:34:03;7.33;;;2.23;;
56517;SDS011;42419;48.760;2.322;2022-09-09T03:36:28;4.47;;;2.33;;
56517;SDS011;42419;48.760;2.322;2022-09-09T03:38:54;5.20;;;2.10;;
56517;SDS011;42419;48.760;2.322;2022-09-09T03:41:20;5.07;;;1.83;;
56517;SDS011;42419;48.760;2.322;2022-09-09T03:43:49;7.23;;;2.77;;
56517;SDS011;42419;48.760;2.322;2022-09-09T03:46:15;7.17;;;2.47;;
56517;SDS011;42419;48.760;2.322;2022-09-09T03:48:40;6.10;;;2.70;;
56517;SDS011;42419;48.760;2.322;2022-09-09T03:51:05;3.77;;;1.80;;
56517;SDS011;42419;48.760;2.322;2022-09-09T03:53:31;8.03;;;2.30;;
56517;SDS011;42419;48.760;2.322;2022-09-09T03:55:57;4.53;;;1.90;;
56517;SDS011;42419;48.760;2.322;2022-09-09T03:58:25;5.80;;;2.53;;
56517;SDS011;42419;48.760;2.322;2022-09-09T04:00:58;4.50;;;1.93;;
56517;SDS011;42419;48.760;2.322;2022-09-09T04:03:25;5.13;;;2.30;;
56517;SDS011;42419;48.760;2.322;2022-09-09T04:05:52;7.20;;;2.30;;
56517;SDS011;42419;48.760;2.322;2022-09-09T04:08:18;5.17;;;2.53;;
56517;SDS011;42419;48.760;2.322;2022-09-09T04:10:44;6.07;;;2.33;;
56517;SDS011;42419;48.760;2.322;2022-09-09T04:13:15;7.20;;;2.20;;
56517;SDS011;42419;48.760;2.322;2022-09-09T04:15:42;6.63;;;2.00;;
56517;SDS011;42419;48.760;2.322;2022-09-09T04:18:10;5.03;;;2.40;;
56517;SDS011;42419;48.760;2.322;2022-09-09T04:20:37;4.37;;;2.10;;
56517;SDS011;42419;48.760;2.322;2022-09-09T04:23:02;5.97;;;2.10;;
56517;SDS011;42419;48.760;2.322;2022-09-09T04:25:29;7.13;;;2.33;;
56517;SDS011;42419;48.760;2.322;2022-09-09T04:27:55;9.33;;;2.60;;
56517;SDS011;42419;48.760;2.322;2022-09-09T04:30:21;6.73;;;2.40;;
56517;SDS011;42419;48.760;2.322;2022-09-09T04:32:46;5.67;;;2.40;;
56517;SDS011;42419;48.760;2.322;2022-09-09T04:35:12;5.93;;;2.80;;
56517;SDS011;42419;48.760;2.322;2022-09-09T04:37:37;5.20;;;2.53;;
56517;SDS011;42419;48.760;2.322;2022-09-09T04:40:03;7.37;;;2.53;;
56517;SDS011;42419;48.760;2.322;2022-09-09T04:42:28;5.83;;;2.50;;
56517;SDS011;42419;48.760;2.322;2022-09-09T04:44:53;7.17;;;2.40;;
56517;SDS011;42419;48.760;2.322;2022-09-09T04:47:19;8.27;;;2.20;;
56517;SDS011;42419;48.760;2.322;2022-09-09T04:49:45;5.23;;;2.73;;
56517;SDS011;42419;48.760;2.322;2022-09-09T04:52:10;6.53;;;2.83;;
56517;SDS011;42419;48.760;2.322;2022-09-09T04:54:35;5.43;;;2.43;;
56517;SDS011;42419;48.760;2.322;2022-09-09T04:57:01;5.77;;;2.17;;
56517;SDS011;42419;48.760;2.322;2022-09-09T04:59:26;5.43;;;2.37;;
56517;SDS011;42419;48.760;2.322;2022-09-09T05:01:52;5.60;;;2.40;;
56517;SDS011;42419;48.760;2.322;2022-09-09T05:04:20;6.17;;;2.30;;
56517;SDS011;42419;48.760;2.322;2022-09-09T05:06:45;6.43;;;2.57;;
56517;SDS011;42419;48.760;2.322;2022-09-09T05:09:10;3.87;;;1.73;;
56517;SDS011;42419;48.760;2.322;2022-09-09T05:11:36;7.03;;;2.57;;
56517;SDS011;42419;48.760;2.322;2022-09-09T05:14:01;5.03;;;2.30;;
56517;SDS011;42419;48.760;2.322;2022-09-09T05:16:27;4.30;;;2.20;;
56517;SDS011;42419;48.760;2.322;2022-09-09T05:18:53;3.40;;;2.13;;
56517;SDS011;42419;48.760;2.322;2022-09-09T05:21:19;6.50;;;2.67;;
56517;SDS011;42419;48.760;2.322;2022-09-09T05:23:46;5.80;;;2.50;;
56517;SDS011;42419;48.760;2.322;2022-09-09T05:26:12;7.30;;;2.30;;
56517;SDS011;42419;48.760;2.322;2022-09-09T05:28:40;4.87;;;2.13;;
56517;SDS011;42419;48.760;2.322;2022-09-09T05:31:06;5.00;;;2.87;;
56517;SDS011;42419;48.760;2.322;2022-09-09T05:33:33;4.03;;;2.67;;
56517;SDS011;42419;48.760;2.322;2022-09-09T05:36:00;3.80;;;2.10;;
56517;SDS011;42419;48.760;2.322;2022-09-09T05:38:30;4.80;;;1.80;;
56517;SDS011;42419;48.760;2.322;2022-09-09T05:40:57;7.10;;;2.70;;
56517;SDS011;42419;48.760;2.322;2022-09-09T05:43:23;4.07;;;2.47;;
56517;SDS011;42419;48.760;2.322;2022-09-09T05:45:58;6.03;;;2.40;;
56517;SDS011;42419;48.760;2.322;2022-09-09T05:48:33;6.40;;;2.90;;
56517;SDS011;42419;48.760;2.322;2022-09-09T05:51:00;8.33;;;2.80;;
56517;SDS011;42419;48.760;2.322;2022-09-09T05:53:27;6.90;;;2.90;;
56517;SDS011;42419;48.760;2.322;2022-09-09T05:58:33;6.40;;;2.47;;
56517;SDS011;42419;48.760;2.322;2022-09-09T06:01:10;6.20;;;2.90;;
56517;SDS011;42419;48.760;2.322;2022-09-09T06:03:38;9.80;;;2.70;;
56517;SDS011;42419;48.760;2.322;2022-09-09T06:06:06;8.20;;;2.77;;
56517;SDS011;42419;48.760;2.322;2022-09-09T06:08:33;9.63;;;2.90;;
56517;SDS011;42419;48.760;2.322;2022-09-09T06:11:05;3.40;;;2.30;;
56517;SDS011;42419;48.760;2.322;2022-09-09T06:13:38;5.40;;;2.40;;
56517;SDS011;42419;48.760;2.322;2022-09-09T06:16:08;8.53;;;2.90;;
56517;SDS011;42419;48.760;2.322;2022-09-09T06:18:36;6.47;;;2.70;;
56517;SDS011;42419;48.760;2.322;2022-09-09T06:21:03;13.30;;;3.37;;
56517;SDS011;42419;48.760;2.322;2022-09-09T06:23:31;6.43;;;2.60;;
56517;SDS011;42419;48.760;2.322;2022-09-09T06:26:09;6.93;;;2.70;;
56517;SDS011;42419;48.760;2.322;2022-09-09T06:28:36;5.87;;;2.23;;
56517;SDS011;42419;48.760;2.322;2022-09-09T06:31:06;7.00;;;2.80;;
56517;SDS011;42419;48.760;2.322;2022-09-09T06:33:39;7.70;;;2.70;;
56517;SDS011;42419;48.760;2.322;2022-09-09T06:36:07;5.90;;;2.63;;
56517;SDS011;42419;48.760;2.322;2022-09-09T06:38:37;7.07;;;2.23;;
56517;SDS011;42419;48.760;2.322;2022-09-09T06:41:02;8.47;;;2.73;;
56517;SDS011;42419;48.760;2.322;2022-09-09T06:43:28;5.27;;;2.40;;
56517;SDS011;42419;48.760;2.322;2022-09-09T06:46:01;5.57;;;2.60;;
56517;SDS011;42419;48.760;2.322;2022-09-09T06:48:29;6.37;;;2.27;;
56517;SDS011;42419;48.760;2.322;2022-09-09T06:51:02;7.47;;;2.90;;
56517;SDS011;42419;48.760;2.322;2022-09-09T06:53:42;6.50;;;2.47;;
56517;SDS011;42419;48.760;2.322;2022-09-09T06:58:34;5.20;;;2.47;;
56517;SDS011;42419;48.760;2.322;2022-09-09T07:01:05;8.57;;;2.50;;
56517;SDS011;42419;48.760;2.322;2022-09-09T07:03:31;8.23;;;2.50;;
56517;SDS011;42419;48.760;2.322;2022-09-09T07:05:58;5.70;;;2.37;;
56517;SDS011;42419;48.760;2.322;2022-09-09T07:08:24;7.47;;;2.63;;
56517;SDS011;42419;48.760;2.322;2022-09-09T07:10:50;6.77;;;2.87;;
56517;SDS011;42419;48.760;2.322;2022-09-09T07:13:18;3.20;;;2.00;;
56517;SDS011;42419;48.760;2.322;2022-09-09T07:15:51;8.97;;;2.87;;
56517;SDS011;42419;48.760;2.322;2022-09-09T07:18:17;5.40;;;2.60;;
56517;SDS011;42419;48.760;2.322;2022-09-09T07:20:42;14.17;;;3.53;;
56517;SDS011;42419;48.760;2.322;2022-09-09T07:23:08;5.70;;;2.30;;
56517;SDS011;42419;48.760;2.322;2022-09-09T07:25:33;6.33;;;3.10;;
56517;SDS011;42419;48.760;2.322;2022-09-09T07:27:58;4.50;;;2.03;;
56517;SDS011;42419;48.760;2.322;2022-09-09T07:30:24;8.17;;;2.37;;
56517;SDS011;42419;48.760;2.322;2022-09-09T07:32:50;7.20;;;2.40;;
56517;SDS011;42419;48.760;2.322;2022-09-09T07:35:16;8.27;;;2.20;;
56517;SDS011;42419;48.760;2.322;2022-09-09T07:37:42;9.00;;;2.80;;
56517;SDS011;42419;48.760;2.322;2022-09-09T07:40:07;5.87;;;2.50;;
56517;SDS011;42419;48.760;2.322;2022-09-09T07:42:33;4.47;;;2.30;;
56517;SDS011;42419;48.760;2.322;2022-09-09T07:44:58;5.90;;;2.20;;
56517;SDS011;42419;48.760;2.322;2022-09-09T07:47:24;6.70;;;2.30;;
56517;SDS011;42419;48.760;2.322;2022-09-09T07:49:49;5.93;;;1.97;;
56517;SDS011;42419;48.760;2.322;2022-09-09T07:52:15;3.80;;;1.90;;
56517;SDS011;42419;48.760;2.322;2022-09-09T07:54:41;5.07;;;2.20;;
56517;SDS011;42419;48.760;2.322;2022-09-09T07:57:07;3.20;;;1.70;;
56517;SDS011;42419;48.760;2.322;2022-09-09T07:59:32;5.83;;;2.23;;
56517;SDS011;42419;48.760;2.322;2022-09-09T08:01:58;7.53;;;2.83;;
56517;SDS011;42419;48.760;2.322;2022-09-09T08:04:24;6.20;;;2.20;;
56517;SDS011;42419;48.760;2.322;2022-09-09T08:06:52;4.17;;;2.30;;
56517;SDS011;42419;48.760;2.322;2022-09-09T08:09:19;9.40;;;3.33;;
56517;SDS011;42419;48.760;2.322;2022-09-09T08:11:45;3.93;;;2.33;;
56517;SDS011;42419;48.760;2.322;2022-09-09T08:14:12;3.77;;;2.03;;
56517;SDS011;42419;48.760;2.322;2022-09-09T08:16:39;4.87;;;1.93;;
56517;SDS011;42419;48.760;2.322;2022-09-09T08:19:06;4.27;;;2.00;;
56517;SDS011;42419;48.760;2.322;2022-09-09T08:21:36;5.60;;;2.03;;
56517;SDS011;42419;48.760;2.322;2022-09-09T08:24:03;5.57;;;2.07;;
56517;SDS011;42419;48.760;2.322;2022-09-09T08:26:35;3.17;;;1.80;;
56517;SDS011;42419;48.760;2.322;2022-09-09T08:29:03;4.40;;;1.90;;
56517;SDS011;42419;48.760;2.322;2022-09-09T08:31:32;8.10;;;2.67;;
56517;SDS011;42419;48.760;2.322;2022-09-09T08:33:59;7.20;;;2.30;;
56517;SDS011;42419;48.760;2.322;2022-09-09T08:36:28;6.97;;;2.20;;
56517;SDS011;42419;48.760;2.322;2022-09-09T08:38:56;4.33;;;1.87;;
56517;SDS011;42419;48.760;2.322;2022-09-09T08:44:10;2.83;;;1.73;;
56517;SDS011;42419;48.760;2.322;2022-09-09T08:46:52;3.67;;;1.77;;
56517;SDS011;42419;48.760;2.322;2022-09-09T08:52:31;3.60;;;1.70;;
56517;SDS011;42419;48.760;2.322;2022-09-09T08:55:10;6.27;;;2.17;;
56517;SDS011;42419;48.760;2.322;2022-09-09T08:57:37;7.10;;;2.80;;
56517;SDS011;42419;48.760;2.322;2022-09-09T09:00:04;8.87;;;2.37;;
56517;SDS011;42419;48.760;2.322;2022-09-09T09:02:32;6.00;;;2.90;;
56517;SDS011;42419;48.760;2.322;2022-09-09T09:05:43;6.63;;;2.73;;
56517;SDS011;42419;48.760;2.322;2022-09-09T09:10:46;8.43;;;2.90;;
56517;SDS011;42419;48.760;2.322;2022-09-09T09:13:35;6.10;;;2.60;;
56517;SDS011;42419;48.760;2.322;2022-09-09T09:16:00;5.23;;;2.33;;
56517;SDS011;42419;48.760;2.322;2022-09-09T09:18:35;7.70;;;2.30;;
56517;SDS011;42419;48.760;2.322;2022-09-09T09:24:02;4.60;;;2.40;;
56517;SDS011;42419;48.760;2.322;2022-09-09T09:26:37;6.10;;;2.80;;
56517;SDS011;42419;48.760;2.322;2022-09-09T09:29:15;7.33;;;2.60;;
56517;SDS011;42419;48.760;2.322;2022-09-09T09:31:47;4.23;;;1.73;;
56517;SDS011;42419;48.760;2.322;2022-09-09T09:34:16;3.50;;;2.00;;
56517;SDS011;42419;48.760;2.322;2022-09-09T09:36:58;4.50;;;2.13;;
56517;SDS011;42419;48.760;2.322;2022-09-09T09:39:29;4.27;;;1.97;;
56517;SDS011;42419;48.760;2.322;2022-09-09T09:41:56;4.40;;;2.10;;
56517;SDS011;42419;48.760;2.322;2022-09-09T09:44:26;4.37;;;2.07;;
56517;SDS011;42419;48.760;2.322;2022-09-09T09:47:05;4.83;;;2.13;;
56517;SDS011;42419;48.760;2.322;2022-09-09T09:49:31;6.40;;;1.90;;
56517;SDS011;42419;48.760;2.322;2022-09-09T09:52:00;4.90;;;2.20;;
56517;SDS011;42419;48.760;2.322;2022-09-09T09:54:29;3.63;;;2.03;;
56517;SDS011;42419;48.760;2.322;2022-09-09T09:57:09;4.07;;;2.20;;
56517;SDS011;42419;48.760;2.322;2022-09-09T09:59:36;6.13;;;2.33;;
56517;SDS011;42419;48.760;2.322;2022-09-09T10:04:40;9.90;;;2.23;;
56517;SDS011;42419;48.760;2.322;2022-09-09T10:07:13;6.07;;;1.93;;
56517;SDS011;42419;48.760;2.322;2022-09-09T10:09:43;4.60;;;2.00;;
56517;SDS011;42419;48.760;2.322;2022-09-09T10:15:26;3.10;;;2.03;;
56517;SDS011;42419;48.760;2.322;2022-09-09T10:18:08;4.93;;;1.70;;
56517;SDS011;42419;48.760;2.322;2022-09-09T10:20:48;4.30;;;1.80;;
56517;SDS011;42419;48.760;2.322;2022-09-09T10:32:04;4.20;;;1.73;;
56517;SDS011;42419;48.760;2.322;2022-09-09T10:43:38;6.47;;;1.80;;
56517;SDS011;42419;48.760;2.322;2022-09-09T10:48:51;2.80;;;1.60;;
56517;SDS011;42419;48.760;2.322;2022-09-09T10:56:39;3.90;;;1.93;;
56517;SDS011;42419;48.760;2.322;2022-09-09T10:59:17;2.67;;;1.67;;
56517;SDS011;42419;48.760;2.322;2022-09-09T11:01:49;4.10;;;2.07;;
56517;SDS011;42419;48.760;2.322;2022-09-09T11:04:22;4.73;;;2.40;;
56517;SDS011;42419;48.760;2.322;2022-09-09T11:06:55;5.83;;;1.90;;
56517;SDS011;42419;48.760;2.322;2022-09-09T11:09:25;3.70;;;1.80;;
56517;SDS011;42419;48.760;2.322;2022-09-09T11:11:57;3.57;;;1.90;;
56517;SDS011;42419;48.760;2.322;2022-09-09T11:14:34;5.07;;;2.03;;
56517;SDS011;42419;48.760;2.322;2022-09-09T11:17:15;4.63;;;1.80;;
56517;SDS011;42419;48.760;2.322;2022-09-09T11:19:43;4.80;;;1.67;;
56517;SDS011;42419;48.760;2.322;2022-09-09T11:25:00;3.03;;;1.87;;
56517;SDS011;42419;48.760;2.322;2022-09-09T11:27:42;5.80;;;1.93;;
56517;SDS011;42419;48.760;2.322;2022-09-09T11:38:50;6.93;;;2.00;;
56517;SDS011;42419;48.760;2.322;2022-09-09T11:41:16;6.03;;;2.03;;
56517;SDS011;42419;48.760;2.322;2022-09-09T11:43:49;4.60;;;1.87;;
56517;SDS011;42419;48.760;2.322;2022-09-09T11:46:17;7.50;;;1.97;;
56517;SDS011;42419;48.760;2.322;2022-09-09T11:48:57;3.20;;;1.80;;
56517;SDS011;42419;48.760;2.322;2022-09-09T11:56:24;2.70;;;1.60;;
56517;SDS011;42419;48.760;2.322;2022-09-09T11:59:33;4.20;;;2.00;;
56517;SDS011;42419;48.760;2.322;2022-09-09T12:02:12;3.40;;;1.80;;
56517;SDS011;42419;48.760;2.322;2022-09-09T12:04:54;5.00;;;1.87;;
56517;SDS011;42419;48.760;2.322;2022-09-09T12:07:29;8.50;;;2.13;;
56517;SDS011;42419;48.760;2.322;2022-09-09T12:10:03;2.47;;;1.40;;
56517;SDS011;42419;48.760;2.322;2022-09-09T12:12:51;3.30;;;1.63;;
56517;SDS011;42419;48.760;2.322;2022-09-09T12:15:27;7.60;;;2.00;;
56517;SDS011;42419;48.760;2.322;2022-09-09T12:17:54;3.60;;;1.60;;
56517;SDS011;42419;48.760;2.322;2022-09-09T12:33:42;6.43;;;2.47;;
56517;SDS011;42419;48.760;2.322;2022-09-09T12:36:21;5.33;;;2.10;;
56517;SDS011;42419;48.760;2.322;2022-09-09T12:38:50;5.57;;;2.20;;
56517;SDS011;42419;48.760;2.322;2022-09-09T12:41:19;5.40;;;1.73;;
56517;SDS011;42419;48.760;2.322;2022-09-09T12:43:47;4.20;;;1.80;;
56517;SDS011;42419;48.760;2.322;2022-09-09T12:46:17;3.70;;;1.60;;
56517;SDS011;42419;48.760;2.322;2022-09-09T12:48:48;5.00;;;2.07;;
56517;SDS011;42419;48.760;2.322;2022-09-09T12:51:21;5.30;;;1.80;;
56517;SDS011;42419;48.760;2.322;2022-09-09T12:53:51;6.33;;;3.03;;
56517;SDS011;42419;48.760;2.322;2022-09-09T12:56:27;4.60;;;3.73;;
56517;SDS011;42419;48.760;2.322;2022-09-09T12:58:56;7.50;;;4.50;;
56517;SDS011;42419;48.760;2.322;2022-09-09T13:01:30;6.07;;;3.93;;
56517;SDS011;42419;48.760;2.322;2022-09-09T13:03:58;9.47;;;3.60;;
56517;SDS011;42419;48.760;2.322;2022-09-09T13:06:24;5.17;;;2.80;;
56517;SDS011;42419;48.760;2.322;2022-09-09T13:08:52;3.97;;;2.60;;
56517;SDS011;42419;48.760;2.322;2022-09-09T13:11:30;3.40;;;2.20;;
56517;SDS011;42419;48.760;2.322;2022-09-09T13:14:01;3.70;;;2.30;;
56517;SDS011;42419;48.760;2.322;2022-09-09T13:19:09;3.83;;;2.50;;
56517;SDS011;42419;48.760;2.322;2022-09-09T13:21:40;5.27;;;2.30;;
56517;SDS011;42419;48.760;2.322;2022-09-09T13:26:57;4.37;;;2.30;;
56517;SDS011;42419;48.760;2.322;2022-09-09T13:29:26;5.97;;;2.70;;
56517;SDS011;42419;48.760;2.322;2022-09-09T13:31:52;3.90;;;2.00;;
56517;SDS011;42419;48.760;2.322;2022-09-09T13:34:31;4.70;;;2.50;;
56517;SDS011;42419;48.760;2.322;2022-09-09T13:37:01;3.00;;;2.03;;
56517;SDS011;42419;48.760;2.322;2022-09-09T13:39:30;3.47;;;1.97;;
56517;SDS011;42419;48.760;2.322;2022-09-09T13:41:58;2.87;;;1.97;;
56517;SDS011;42419;48.760;2.322;2022-09-09T13:44:24;2.80;;;1.60;;
56517;SDS011;42419;48.760;2.322;2022-09-09T13:47:04;5.70;;;2.07;;
56517;SDS011;42419;48.760;2.322;2022-09-09T13:49:42;4.47;;;1.90;;
56517;SDS011;42419;48.760;2.322;2022-09-09T13:54:42;3.97;;;2.07;;
56517;SDS011;42419;48.760;2.322;2022-09-09T13:57:14;3.20;;;1.53;;
56517;SDS011;42419;48.760;2.322;2022-09-09T13:59:47;3.53;;;2.20;;
56517;SDS011;42419;48.760;2.322;2022-09-09T14:02:14;2.80;;;1.70;;
56517;SDS011;42419;48.760;2.322;2022-09-09T14:04:39;4.20;;;1.90;;
56517;SDS011;42419;48.760;2.322;2022-09-09T14:07:08;3.50;;;1.93;;
56517;SDS011;42419;48.760;2.322;2022-09-09T14:09:36;4.70;;;2.30;;
56517;SDS011;42419;48.760;2.322;2022-09-09T14:12:01;3.47;;;1.97;;
56517;SDS011;42419;48.760;2.322;2022-09-09T14:14:27;3.37;;;2.07;;
56517;SDS011;42419;48.760;2.322;2022-09-09T14:16:52;3.80;;;1.87;;
56517;SDS011;42419;48.760;2.322;2022-09-09T14:19:17;9.63;;;2.50;;
56517;SDS011;42419;48.760;2.322;2022-09-09T14:21:43;4.67;;;2.27;;
56517;SDS011;42419;48.760;2.322;2022-09-09T14:24:08;4.63;;;2.43;;
56517;SDS011;42419;48.760;2.322;2022-09-09T14:26:33;6.77;;;2.90;;
56517;SDS011;42419;48.760;2.322;2022-09-09T14:28:59;4.10;;;2.53;;
56517;SDS011;42419;48.760;2.322;2022-09-09T14:31:26;5.73;;;2.60;;
56517;SDS011;42419;48.760;2.322;2022-09-09T14:33:51;6.30;;;2.37;;
56517;SDS011;42419;48.760;2.322;2022-09-09T14:36:17;4.30;;;2.30;;
56517;SDS011;42419;48.760;2.322;2022-09-09T14:38:43;6.90;;;2.33;;
56517;SDS011;42419;48.760;2.322;2022-09-09T14:41:12;6.00;;;2.50;;
56517;SDS011;42419;48.760;2.322;2022-09-09T14:43:38;3.63;;;2.20;;
56517;SDS011;42419;48.760;2.322;2022-09-09T14:46:05;4.23;;;1.83;;
56517;SDS011;42419;48.760;2.322;2022-09-09T14:48:34;4.30;;;2.33;;
56517;SDS011;42419;48.760;2.322;2022-09-09T14:51:07;4.43;;;2.03;;
56517;SDS011;42419;48.760;2.322;2022-09-09T14:53:52;3.53;;;2.07;;
56517;SDS011;42419;48.760;2.322;2022-09-09T14:56:20;3.87;;;2.00;;
56517;SDS011;42419;48.760;2.322;2022-09-09T14:58:49;3.93;;;2.00;;
56517;SDS011;42419;48.760;2.322;2022-09-09T15:01:16;3.10;;;1.97;;
56517;SDS011;42419;48.760;2.322;2022-09-09T15:03:48;3.30;;;1.80;;
56517;SDS011;42419;48.760;2.322;2022-09-09T15:06:16;3.37;;;2.00;;
56517;SDS011;42419;48.760;2.322;2022-09-09T15:08:42;2.77;;;1.77;;
56517;SDS011;42419;48.760;2.322;2022-09-09T15:11:09;4.10;;;1.80;;
56517;SDS011;42419;48.760;2.322;2022-09-09T15:13:35;3.60;;;1.80;;
56517;SDS011;42419;48.760;2.322;2022-09-09T15:18:31;2.33;;;1.60;;
56517;SDS011;42419;48.760;2.322;2022-09-09T15:20:58;4.23;;;1.93;;
56517;SDS011;42419;48.760;2.322;2022-09-09T15:23:24;2.97;;;1.70;;
56517;SDS011;42419;48.760;2.322;2022-09-09T15:25:51;3.47;;;1.43;;
56517;SDS011;42419;48.760;2.322;2022-09-09T15:28:17;2.77;;;1.37;;
56517;SDS011;42419;48.760;2.322;2022-09-09T15:30:42;3.63;;;1.57;;
56517;SDS011;42419;48.760;2.322;2022-09-09T15:33:09;4.10;;;1.90;;
56517;SDS011;42419;48.760;2.322;2022-09-09T15:35:35;4.37;;;1.60;;
56517;SDS011;42419;48.760;2.322;2022-09-09T15:38:03;5.30;;;1.90;;
56517;SDS011;42419;48.760;2.322;2022-09-09T15:40:30;8.37;;;1.97;;
56517;SDS011;42419;48.760;2.322;2022-09-09T15:42:57;4.33;;;1.80;;
56517;SDS011;42419;48.760;2.322;2022-09-09T15:45:22;5.30;;;2.03;;
56517;SDS011;42419;48.760;2.322;2022-09-09T15:47:48;2.73;;;1.60;;
56517;SDS011;42419;48.760;2.322;2022-09-09T15:50:14;2.90;;;1.60;;
56517;SDS011;42419;48.760;2.322;2022-09-09T15:52:39;3.53;;;2.00;;
56517;SDS011;42419;48.760;2.322;2022-09-09T15:55:04;3.67;;;1.60;;
56517;SDS011;42419;48.760;2.322;2022-09-09T15:57:30;3.23;;;1.63;;
56517;SDS011;42419;48.760;2.322;2022-09-09T15:59:55;4.60;;;1.83;;
56517;SDS011;42419;48.760;2.322;2022-09-09T16:02:21;4.80;;;1.73;;
56517;SDS011;42419;48.760;2.322;2022-09-09T16:04:46;5.53;;;1.87;;
56517;SDS011;42419;48.760;2.322;2022-09-09T16:07:11;3.30;;;1.70;;
56517;SDS011;42419;48.760;2.322;2022-09-09T16:09:37;4.83;;;2.27;;
56517;SDS011;42419;48.760;2.322;2022-09-09T16:12:03;3.30;;;1.60;;
56517;SDS011;42419;48.760;2.322;2022-09-09T16:14:34;2.23;;;1.70;;
56517;SDS011;42419;48.760;2.322;2022-09-09T16:17:01;3.47;;;2.07;;
56517;SDS011;42419;48.760;2.322;2022-09-09T16:19:30;3.93;;;1.50;;
56517;SDS011;42419;48.760;2.322;2022-09-09T16:21:56;3.40;;;1.80;;
56517;SDS011;42419;48.760;2.322;2022-09-09T16:24:21;2.33;;;1.80;;
56517;SDS011;42419;48.760;2.322;2022-09-09T16:26:49;3.00;;;1.40;;
56517;SDS011;42419;48.760;2.322;2022-09-09T16:29:16;2.43;;;1.60;;
56517;SDS011;42419;48.760;2.322;2022-09-09T16:31:43;3.80;;;1.67;;
56517;SDS011;42419;48.760;2.322;2022-09-09T16:34:09;3.43;;;1.77;;
56517;SDS011;42419;48.760;2.322;2022-09-09T16:36:36;5.13;;;1.73;;
56517;SDS011;42419;48.760;2.322;2022-09-09T16:39:04;3.33;;;1.53;;
56517;SDS011;42419;48.760;2.322;2022-09-09T16:41:32;3.10;;;1.53;;
56517;SDS011;42419;48.760;2.322;2022-09-09T16:43:59;3.23;;;1.70;;
56517;SDS011;42419;48.760;2.322;2022-09-09T16:46:26;3.70;;;1.70;;
56517;SDS011;42419;48.760;2.322;2022-09-09T16:48:53;3.57;;;1.77;;
56517;SDS011;42419;48.760;2.322;2022-09-09T16:51:23;2.77;;;1.80;;
56517;SDS011;42419;48.760;2.322;2022-09-09T16:53:51;3.30;;;1.50;;